メインページ
METAR-TAF:

METAR-TAF

空港 :

カルガリー国際空港

カルガリー, アルバータ州, カナダ

緯度: 51-07N, 経度: 114-01W, 海抜: 1077m

現時点の気象観測

当レポートは1時間2分前の11:00(UTC)に作成
西の風 9kt
気温 7°C
湿度 31%
気圧 1014 hPa
視程: 24.1km
高度13000ftの雲はほとんどない
高度16000ftの雲はほとんどない

METAR: CYYC 141100Z 28009KT 15SM FEW130 FEW160 07/M09 A2993 RMK AC1AC1 AC TR AC TR SLP153

時間: 05:02 (12:02 UTC)

予報

当レポートは22分前の11:40(UTC)に作成
予報は14日の 12時(UTC)から 15日の 12時(UTC)まで有効
西の風 12kt、最大22ktの突風を伴う
視程: 10km
高度12000ftの雲は散在している
高度20000ftの千切れ雲あり
14日の 12時(UTC)から 14日の 15時(UTC)まで一時的に
西の風 20kt、最大30ktの突風を伴う
14日の 1500時(UTC)から
西の風 12kt、最大22ktの突風を伴う
視程: 10km
高度12000ftの雲は散在している
14日の 16時(UTC)から 14日の 18時(UTC)まで徐々に
西の風 8kt
15日の 0200時(UTC)から
西/北西の風 12kt、最大22ktの突風を伴う
視程: 10km
高度20000ftの雲はほとんどない

TAF: CYYC 141140Z 1412/1512 26012G22KT P6SM SCT120 BKN200 TEMPO 1412/1415 26020G30KT FM141500 28012G22KT P6SM SCT120 BECMG 1416/1418 26008KT FM150200 29012G22KT P6SM FEW200 RMK NXT FCST BY 141500Z

4,000以上の空港の気象観測と天気予報(METAR報とTAF報)

利用可能な観測所は地図上に黄色い丸と赤い丸で示す。

丸の上にカーソルを重ねると観測所名を参照できる。

次にクリックすると気象観測と天気予報を参照できる。

マップの切り替え:黒色「×」印の緑ボタンをクリックして拡大、「-」印の緑ボタンをクリックして縮小、緑色の三角印をクリックして隣りの地図に切り替え


METAR-TAF: